createdAt,value
2023-08-12T00:02:20.694Z,27.20
2023-08-12T00:04:49.218Z,27.20
2023-08-12T00:07:17.709Z,27.20
2023-08-12T00:09:46.072Z,27.20
2023-08-12T00:12:13.932Z,27.30
2023-08-12T00:14:41.668Z,27.40
2023-08-12T00:17:10.033Z,27.30
2023-08-12T00:19:38.030Z,27.30
2023-08-12T00:22:06.173Z,27.30
2023-08-12T00:24:34.152Z,27.30
2023-08-12T00:27:02.115Z,27.30
2023-08-12T00:29:30.012Z,27.20
2023-08-12T00:31:57.931Z,27.30
2023-08-12T00:34:25.815Z,27.30
2023-08-12T00:36:53.767Z,27.40
2023-08-12T00:39:21.653Z,27.30
2023-08-12T00:41:49.864Z,27.30
2023-08-12T00:44:17.869Z,27.20
2023-08-12T00:46:45.858Z,27.20
2023-08-12T00:49:15.098Z,27.20
2023-08-12T00:51:46.411Z,27.30
2023-08-12T00:54:17.449Z,27.20
2023-08-12T00:56:45.570Z,27.30
2023-08-12T00:59:14.571Z,27.30
2023-08-12T01:01:44.804Z,27.20
2023-08-12T01:04:12.755Z,27.20
2023-08-12T01:06:40.839Z,27.10
2023-08-12T01:09:09.615Z,27.20
2023-08-12T01:11:51.941Z,27.20
2023-08-12T01:14:41.582Z,27.30
2023-08-12T01:17:13.419Z,27.20
2023-08-12T01:19:42.682Z,27.00
2023-08-12T01:22:13.105Z,27.00
2023-08-12T01:24:43.725Z,27.00
2023-08-12T01:27:14.290Z,27.10
2023-08-12T01:29:49.273Z,26.90
2023-08-12T01:32:39.017Z,26.80
2023-08-12T01:35:19.315Z,26.80
2023-08-12T01:37:49.599Z,26.70
2023-08-12T01:40:20.365Z,26.40
2023-08-12T01:42:49.735Z,26.40
2023-08-12T01:45:19.558Z,26.40
2023-08-12T01:47:48.013Z,26.40
2023-08-12T01:50:15.817Z,26.50
2023-08-12T01:52:43.676Z,26.30
2023-08-12T01:55:11.618Z,26.40
2023-08-12T01:57:39.480Z,26.50
2023-08-12T02:00:07.916Z,26.40
2023-08-12T02:02:35.545Z,26.40
2023-08-12T02:05:03.482Z,26.40
2023-08-12T02:07:31.799Z,26.40
2023-08-12T02:09:59.656Z,26.30
2023-08-12T02:12:27.474Z,26.40
2023-08-12T02:14:55.476Z,26.40
2023-08-12T02:17:23.238Z,26.50
2023-08-12T02:19:50.999Z,26.50
2023-08-12T02:22:18.939Z,26.60
2023-08-12T02:24:46.811Z,26.50
2023-08-12T02:27:14.868Z,26.50
2023-08-12T02:29:42.875Z,26.30
2023-08-12T02:32:10.743Z,26.30
2023-08-12T02:34:38.637Z,26.30
2023-08-12T02:37:07.209Z,26.40
2023-08-12T02:39:35.066Z,26.40
2023-08-12T02:42:02.881Z,26.50
2023-08-12T02:44:30.800Z,26.50
2023-08-12T02:46:58.637Z,26.40
2023-08-12T02:49:26.501Z,26.50
2023-08-12T02:51:54.276Z,26.50
2023-08-12T02:54:22.059Z,26.50
2023-08-12T02:56:52.899Z,26.40
2023-08-12T02:59:20.798Z,26.40
2023-08-12T03:01:48.679Z,26.50
2023-08-12T03:04:16.519Z,26.40
2023-08-12T03:06:44.321Z,26.50
2023-08-12T03:09:12.442Z,26.50
2023-08-12T03:11:41.159Z,26.60
2023-08-12T03:14:08.998Z,26.60
2023-08-12T03:16:36.981Z,26.50
2023-08-12T03:19:04.939Z,26.40
2023-08-12T03:21:32.780Z,26.50
2023-08-12T03:24:00.680Z,26.60
2023-08-12T03:26:28.502Z,26.50
2023-08-12T03:28:58.587Z,26.60
2023-08-12T03:31:26.524Z,26.50
2023-08-12T03:33:54.380Z,26.60
2023-08-12T03:36:22.266Z,26.50
2023-08-12T03:38:50.231Z,26.60
2023-08-12T03:41:18.376Z,26.50
2023-08-12T03:43:46.166Z,26.60
2023-08-12T03:46:14.028Z,26.50
2023-08-12T03:48:41.859Z,26.60
2023-08-12T03:51:09.682Z,26.60
2023-08-12T03:53:37.577Z,26.60
2023-08-12T03:56:05.824Z,26.60
2023-08-12T03:58:33.975Z,26.60
2023-08-12T04:01:01.926Z,26.50
2023-08-12T04:03:29.766Z,26.60
2023-08-12T04:05:57.597Z,26.50
2023-08-12T04:08:26.540Z,26.70
2023-08-12T04:10:54.411Z,26.60
2023-08-12T04:13:22.428Z,26.60
2023-08-12T04:15:52.453Z,26.50
2023-08-12T04:18:21.411Z,26.50
2023-08-12T04:20:52.444Z,26.40
2023-08-12T04:23:21.094Z,26.50
2023-08-12T04:25:49.649Z,26.50
2023-08-12T04:28:17.885Z,26.50
2023-08-12T04:30:47.501Z,26.40
2023-08-12T04:33:16.142Z,26.40
2023-08-12T04:35:44.866Z,26.40
2023-08-12T04:38:12.788Z,26.40
2023-08-12T04:40:42.389Z,26.40
2023-08-12T04:43:11.525Z,26.50
2023-08-12T04:45:40.156Z,26.40
2023-08-12T04:48:10.155Z,26.40
2023-08-12T04:50:38.219Z,26.40
2023-08-12T04:53:07.088Z,26.40
2023-08-12T04:55:39.787Z,26.40
2023-08-12T04:58:07.658Z,26.30
2023-08-12T05:00:35.528Z,26.20
2023-08-12T05:03:04.722Z,26.20
2023-08-12T05:05:32.532Z,26.20
2023-08-12T05:08:00.325Z,26.30
2023-08-12T05:10:28.111Z,26.20
2023-08-12T05:12:56.706Z,26.10
2023-08-12T05:15:24.456Z,25.90
2023-08-12T05:17:53.145Z,25.90
2023-08-12T05:20:20.860Z,25.90
2023-08-12T05:22:49.109Z,25.70
2023-08-12T05:25:17.150Z,25.80
2023-08-12T05:27:45.154Z,25.70
2023-08-12T05:30:13.424Z,25.50
2023-08-12T05:32:41.358Z,25.50
2023-08-12T05:35:09.453Z,25.60
2023-08-12T05:37:37.313Z,25.70
2023-08-12T05:40:10.157Z,25.70
2023-08-12T05:42:38.495Z,25.80
2023-08-12T05:45:08.618Z,25.90
2023-08-12T05:47:36.912Z,25.90
2023-08-12T05:50:05.122Z,26.10
2023-08-12T05:52:32.871Z,26.00
2023-08-12T05:55:00.649Z,26.10
2023-08-12T05:57:29.756Z,26.10
2023-08-12T05:59:57.905Z,26.20
2023-08-12T06:02:26.863Z,26.20
2023-08-12T06:04:54.808Z,26.30
2023-08-12T06:07:22.717Z,26.40
2023-08-12T06:09:51.603Z,26.50
2023-08-12T06:12:19.445Z,26.60
2023-08-12T06:14:47.309Z,26.60
2023-08-12T06:17:15.115Z,26.60
2023-08-12T06:19:42.882Z,26.70
2023-08-12T06:22:11.437Z,26.50
2023-08-12T06:24:39.520Z,26.90
2023-08-12T06:27:07.652Z,27.10
2023-08-12T06:29:35.563Z,27.30
2023-08-12T06:32:03.451Z,27.30
2023-08-12T06:34:31.445Z,27.40
2023-08-12T06:36:59.900Z,27.60
2023-08-12T06:39:27.575Z,27.80
2023-08-12T06:41:55.480Z,27.90
2023-08-12T06:44:23.425Z,28.00
2023-08-12T06:46:51.211Z,28.10
2023-08-12T06:49:20.399Z,28.20
2023-08-12T06:51:49.877Z,28.50
2023-08-12T06:54:17.961Z,28.60
2023-08-12T06:56:45.836Z,28.70
2023-08-12T06:59:13.586Z,28.80
2023-08-12T07:01:41.489Z,29.10
2023-08-12T07:04:10.010Z,29.10
2023-08-12T07:06:37.800Z,29.20
2023-08-12T07:09:05.824Z,29.30
2023-08-12T07:11:33.704Z,29.40
2023-08-12T07:14:01.562Z,29.50
2023-08-12T07:16:29.358Z,29.50
2023-08-12T07:18:57.198Z,29.50
2023-08-12T07:21:25.104Z,29.90
2023-08-12T07:24:03.103Z,30.10
2023-08-12T07:26:32.056Z,30.30
2023-08-12T07:28:59.611Z,30.60
2023-08-12T07:31:27.531Z,30.60
2023-08-12T07:33:55.619Z,30.90
2023-08-12T07:36:23.900Z,31.10
2023-08-12T07:38:51.686Z,31.20
2023-08-12T07:41:19.857Z,31.40
2023-08-12T07:43:47.582Z,31.60
2023-08-12T07:46:15.642Z,31.80
2023-08-12T07:48:43.445Z,32.10
2023-08-12T07:51:11.416Z,32.30
2023-08-12T07:53:39.194Z,32.40
2023-08-12T07:56:07.260Z,32.60
2023-08-12T07:58:34.958Z,32.70
2023-08-12T08:01:02.903Z,32.60
2023-08-12T08:03:30.707Z,32.50
2023-08-12T08:05:58.500Z,32.60
2023-08-12T08:08:26.480Z,32.90
2023-08-12T08:10:54.450Z,33.10
2023-08-12T08:13:22.292Z,33.10
2023-08-12T08:15:50.193Z,33.20
2023-08-12T08:18:18.929Z,33.30
2023-08-12T08:20:46.858Z,33.40
2023-08-12T08:23:14.799Z,33.40
2023-08-12T08:25:42.671Z,33.50
2023-08-12T08:28:10.444Z,33.60
2023-08-12T08:30:38.915Z,33.60
2023-08-12T08:33:07.622Z,33.80
2023-08-12T08:35:35.688Z,34.00
2023-08-12T08:38:03.384Z,34.00
2023-08-12T08:40:31.341Z,34.20
2023-08-12T08:43:05.601Z,34.20
2023-08-12T08:45:37.492Z,34.40
2023-08-12T08:48:08.133Z,34.40
2023-08-12T08:50:37.154Z,34.30
2023-08-12T08:53:08.154Z,34.40
2023-08-12T08:55:35.931Z,34.30
2023-08-12T08:58:05.931Z,34.40
2023-08-12T09:00:34.517Z,34.50
2023-08-12T09:03:04.510Z,34.50
2023-08-12T09:05:33.805Z,34.70
2023-08-12T09:08:03.661Z,34.60
2023-08-12T09:10:33.374Z,34.60
2023-08-12T09:13:01.379Z,34.50
2023-08-12T09:15:29.051Z,34.50
2023-08-12T09:17:56.994Z,34.30
2023-08-12T09:20:24.780Z,34.50
2023-08-12T09:22:59.595Z,34.60
2023-08-12T09:25:31.050Z,34.80
2023-08-12T09:28:02.489Z,34.80
2023-08-12T09:30:32.839Z,35.00
2023-08-12T09:33:08.705Z,35.20
2023-08-12T09:35:38.203Z,35.20
2023-08-12T09:38:09.158Z,35.40
2023-08-12T09:40:38.442Z,35.40
2023-08-12T09:43:06.640Z,35.60
2023-08-12T09:45:36.823Z,35.70
2023-08-12T09:48:05.040Z,35.70
2023-08-12T09:50:33.039Z,35.90
2023-08-12T09:53:04.834Z,36.10
2023-08-12T09:55:35.534Z,36.10
2023-08-12T09:58:09.648Z,36.30
2023-08-12T10:00:37.870Z,36.40
2023-08-12T10:03:07.297Z,36.60
2023-08-12T10:05:35.692Z,36.70
2023-08-12T10:08:05.615Z,36.80
2023-08-12T10:10:37.053Z,36.90
2023-08-12T10:13:09.051Z,36.90
2023-08-12T10:15:38.298Z,37.10
2023-08-12T10:18:09.707Z,37.20
2023-08-12T10:20:49.707Z,37.40
2023-08-12T10:23:21.622Z,37.30
2023-08-12T10:25:55.121Z,37.40
2023-08-12T10:28:23.633Z,37.40
2023-08-12T10:30:51.849Z,37.50
2023-08-12T10:33:20.278Z,37.60
2023-08-12T10:35:50.892Z,37.70
2023-08-12T10:38:21.234Z,37.50
2023-08-12T10:40:50.025Z,37.60
2023-08-12T10:43:17.869Z,37.60
2023-08-12T10:45:50.138Z,37.70
2023-08-12T10:48:25.118Z,37.70
2023-08-12T10:51:00.108Z,37.70
2023-08-12T10:53:33.458Z,37.60
2023-08-12T10:56:06.365Z,37.70
2023-08-12T10:58:48.405Z,37.80
2023-08-12T11:01:20.266Z,38.00
2023-08-12T11:03:50.953Z,38.10
2023-08-12T11:06:21.577Z,38.10
2023-08-12T11:08:58.916Z,38.10
2023-08-12T11:11:28.312Z,38.20
2023-08-12T11:14:00.115Z,38.50
2023-08-12T11:16:38.913Z,38.30
2023-08-12T11:19:08.765Z,38.40
2023-08-12T11:21:41.292Z,38.40
2023-08-12T11:24:09.861Z,38.50
2023-08-12T11:26:38.785Z,38.50
2023-08-12T11:29:14.130Z,38.30
2023-08-12T11:31:42.114Z,38.00
2023-08-12T11:34:10.710Z,37.90
2023-08-12T11:36:38.757Z,37.60
2023-08-12T11:39:06.713Z,37.60
2023-08-12T11:41:35.521Z,37.20
2023-08-12T11:44:06.373Z,37.10
2023-08-12T11:46:37.442Z,37.10
2023-08-12T11:49:05.527Z,37.00
2023-08-12T11:51:33.952Z,36.80
2023-08-12T11:54:02.217Z,36.70
2023-08-12T11:56:30.246Z,36.60
2023-08-12T11:58:59.034Z,36.80
2023-08-12T12:01:30.490Z,36.80
2023-08-12T12:04:03.379Z,36.80
2023-08-12T12:06:37.872Z,36.60
2023-08-12T12:09:11.334Z,36.50
2023-08-12T12:11:39.615Z,36.30
2023-08-12T12:14:10.791Z,35.90
2023-08-12T12:16:42.871Z,35.80
2023-08-12T12:19:24.590Z,35.50
2023-08-12T12:21:54.379Z,35.40
2023-08-12T12:24:22.635Z,35.30
2023-08-12T12:26:51.438Z,35.30
2023-08-12T12:29:19.454Z,35.30
2023-08-12T12:31:47.373Z,35.10
2023-08-12T12:34:15.850Z,35.00
2023-08-12T12:36:44.112Z,35.10
2023-08-12T12:39:12.036Z,35.00
2023-08-12T12:41:39.700Z,34.90
2023-08-12T12:44:07.976Z,35.00
2023-08-12T12:46:36.665Z,35.10
2023-08-12T12:49:04.703Z,35.20
2023-08-12T12:51:32.744Z,35.50
2023-08-12T12:54:00.367Z,35.50
2023-08-12T12:56:28.533Z,35.50
2023-08-12T12:58:57.159Z,35.70
2023-08-12T13:01:25.235Z,35.70
2023-08-12T13:03:53.086Z,35.80
2023-08-12T13:06:20.899Z,35.60
2023-08-12T13:08:48.862Z,35.70
2023-08-12T13:11:17.105Z,36.00
2023-08-12T13:13:45.045Z,36.10
2023-08-12T13:16:12.752Z,36.20
2023-08-12T13:18:40.768Z,36.10
2023-08-12T13:21:08.631Z,36.00
2023-08-12T13:23:36.546Z,36.50
2023-08-12T13:26:04.286Z,36.50
2023-08-12T13:28:32.367Z,36.70
2023-08-12T13:31:00.197Z,37.00
2023-08-12T13:33:28.177Z,37.10
2023-08-12T13:35:56.229Z,37.30
2023-08-12T13:38:24.066Z,37.40
2023-08-12T13:40:52.022Z,37.40
2023-08-12T13:43:19.869Z,37.60
2023-08-12T13:45:47.860Z,37.40
2023-08-12T13:48:16.180Z,37.30
2023-08-12T13:50:44.512Z,37.50
2023-08-12T13:53:12.429Z,37.80
2023-08-12T13:55:40.261Z,38.00
2023-08-12T13:58:09.256Z,38.30
2023-08-12T14:00:37.285Z,38.40
2023-08-12T14:03:05.655Z,38.30
2023-08-12T14:05:33.898Z,38.20
2023-08-12T14:08:01.977Z,38.30
2023-08-12T14:10:29.859Z,38.20
2023-08-12T14:12:57.881Z,38.20
2023-08-12T14:15:25.722Z,38.10
2023-08-12T14:17:54.097Z,38.30
2023-08-12T14:20:21.877Z,37.80
2023-08-12T14:22:50.085Z,38.00
2023-08-12T14:25:18.174Z,38.10
2023-08-12T14:27:46.103Z,37.90
2023-08-12T14:30:14.336Z,38.20
2023-08-12T14:32:42.295Z,38.20
2023-08-12T14:35:10.922Z,38.40
2023-08-12T14:37:38.836Z,38.20
2023-08-12T14:40:07.476Z,38.20
2023-08-12T14:42:35.348Z,37.90
2023-08-12T14:45:04.614Z,37.60
2023-08-12T14:47:32.558Z,37.60
2023-08-12T14:50:00.521Z,37.70
2023-08-12T14:52:28.469Z,37.70
2023-08-12T14:54:56.455Z,37.40
2023-08-12T14:57:24.472Z,37.40
2023-08-12T14:59:52.599Z,37.60
2023-08-12T15:02:26.343Z,37.70
2023-08-12T15:04:55.760Z,37.70
2023-08-12T15:07:23.745Z,37.70
2023-08-12T15:09:53.380Z,37.50
2023-08-12T15:12:22.017Z,37.30
2023-08-12T15:14:50.095Z,37.10
2023-08-12T15:17:18.157Z,37.10
2023-08-12T15:19:45.992Z,36.90
2023-08-12T15:22:13.977Z,36.90
2023-08-12T15:24:42.154Z,36.80
2023-08-12T15:27:10.547Z,36.80
2023-08-12T15:29:38.460Z,36.20
2023-08-12T15:32:07.358Z,36.00
2023-08-12T15:34:35.266Z,36.00
2023-08-12T15:37:03.536Z,35.90
2023-08-12T15:39:31.598Z,35.90
2023-08-12T15:41:59.570Z,35.70
2023-08-12T15:44:27.557Z,35.50
2023-08-12T15:46:55.939Z,35.70
2023-08-12T15:49:23.934Z,35.30
2023-08-12T15:51:51.832Z,35.10
2023-08-12T15:54:20.027Z,35.10
2023-08-12T15:56:47.896Z,34.80
2023-08-12T15:59:15.738Z,34.40
2023-08-12T16:01:44.219Z,34.30
2023-08-12T16:04:12.021Z,34.30
2023-08-12T16:06:39.892Z,34.20
2023-08-12T16:09:18.303Z,34.30
2023-08-12T16:11:49.014Z,34.40
2023-08-12T16:14:17.210Z,34.40
2023-08-12T16:16:45.250Z,34.60
2023-08-12T16:19:13.479Z,34.60
2023-08-12T16:21:41.644Z,34.70
2023-08-12T16:24:09.594Z,34.60
2023-08-12T16:26:37.211Z,34.50
2023-08-12T16:29:05.639Z,34.50
2023-08-12T16:31:33.788Z,34.30
2023-08-12T16:34:01.813Z,34.30
2023-08-12T16:36:29.774Z,34.40
2023-08-12T16:38:57.641Z,34.20
2023-08-12T16:41:25.644Z,34.40
2023-08-12T16:43:53.480Z,34.30
2023-08-12T16:46:24.225Z,34.10
2023-08-12T16:48:52.643Z,34.00
2023-08-12T16:51:20.622Z,33.80
2023-08-12T16:53:48.627Z,33.60
2023-08-12T16:56:16.279Z,33.50
2023-08-12T16:58:44.264Z,33.50
2023-08-12T17:01:12.360Z,33.40
2023-08-12T17:03:40.347Z,33.30
2023-08-12T17:06:08.028Z,33.30
2023-08-12T17:08:36.001Z,33.20
2023-08-12T17:11:09.915Z,33.00
2023-08-12T17:13:38.603Z,32.90
2023-08-12T17:16:06.584Z,32.80
2023-08-12T17:18:34.501Z,32.60
2023-08-12T17:21:03.144Z,32.40
2023-08-12T17:23:36.682Z,32.20
2023-08-12T17:26:11.602Z,32.00
2023-08-12T17:28:39.748Z,31.90
2023-08-12T17:31:07.743Z,31.90
2023-08-12T17:33:35.792Z,31.90
2023-08-12T17:36:04.549Z,31.90
2023-08-12T17:38:32.499Z,31.80
2023-08-12T17:41:00.402Z,31.70
2023-08-12T17:43:28.165Z,31.40
2023-08-12T17:45:56.084Z,31.50
2023-08-12T17:48:24.062Z,31.30
2023-08-12T17:50:51.988Z,31.40
2023-08-12T17:53:19.853Z,31.40
2023-08-12T17:55:47.730Z,31.30
2023-08-12T17:58:15.507Z,31.10
2023-08-12T18:00:43.621Z,31.10
2023-08-12T18:03:11.633Z,31.10
2023-08-12T18:05:39.499Z,31.20
2023-08-12T18:08:13.175Z,31.00
2023-08-12T18:10:48.831Z,31.10
2023-08-12T18:13:18.353Z,31.30
2023-08-12T18:15:50.509Z,31.20
2023-08-12T18:18:23.446Z,31.20
2023-08-12T18:20:58.728Z,31.10
2023-08-12T18:23:30.589Z,31.10
2023-08-12T18:25:58.725Z,31.10
2023-08-12T18:28:26.785Z,31.00
2023-08-12T18:30:54.728Z,31.00
2023-08-12T18:33:22.625Z,31.00
2023-08-12T18:35:51.605Z,30.90
2023-08-12T18:38:24.573Z,30.70
2023-08-12T18:40:57.977Z,30.70
2023-08-12T18:43:32.434Z,30.60
2023-08-12T18:46:07.222Z,30.60
2023-08-12T18:48:36.590Z,30.60
2023-08-12T18:51:04.602Z,30.50
2023-08-12T18:53:32.402Z,30.40
2023-08-12T18:56:00.140Z,30.30
2023-08-12T18:58:27.949Z,30.30
2023-08-12T19:00:55.684Z,30.30
2023-08-12T19:03:23.568Z,30.40
2023-08-12T19:05:59.477Z,30.30
2023-08-12T19:08:32.944Z,30.10
2023-08-12T19:11:01.568Z,29.90
2023-08-12T19:13:29.775Z,30.00
2023-08-12T19:15:58.390Z,30.00
2023-08-12T19:18:29.470Z,29.90
2023-08-12T19:20:58.387Z,30.10
2023-08-12T19:23:26.079Z,29.90
2023-08-12T19:25:55.169Z,29.90
2023-08-12T19:28:22.950Z,29.90
2023-08-12T19:30:51.897Z,29.90
2023-08-12T19:33:20.397Z,29.70
2023-08-12T19:35:48.185Z,29.70
2023-08-12T19:38:16.943Z,29.70
2023-08-12T19:40:44.842Z,29.60
2023-08-12T19:43:12.603Z,29.60
2023-08-12T19:45:40.689Z,29.60
2023-08-12T19:48:08.564Z,29.60
2023-08-12T19:50:37.947Z,29.50
2023-08-12T19:53:06.474Z,29.50
2023-08-12T19:55:34.237Z,29.50
2023-08-12T19:58:02.154Z,29.40
2023-08-12T20:00:29.944Z,29.40
2023-08-12T20:02:58.783Z,29.50
2023-08-12T20:05:34.656Z,29.40
2023-08-12T20:08:15.612Z,29.40
2023-08-12T20:10:47.194Z,29.50
2023-08-12T20:13:16.340Z,29.50
2023-08-12T20:15:45.402Z,29.40
2023-08-12T20:18:13.662Z,29.50
2023-08-12T20:20:41.596Z,29.40
2023-08-12T20:23:09.909Z,29.50
2023-08-12T20:25:37.444Z,29.50
2023-08-12T20:28:06.259Z,29.50
2023-08-12T20:30:35.016Z,29.40
2023-08-12T20:33:04.053Z,29.40
2023-08-12T20:35:32.534Z,29.40
2023-08-12T20:38:00.433Z,29.40
2023-08-12T20:40:28.409Z,29.40
2023-08-12T20:42:56.167Z,29.40
2023-08-12T20:45:25.559Z,29.40
2023-08-12T20:47:53.498Z,29.30
2023-08-12T20:50:21.311Z,29.40
2023-08-12T20:52:49.082Z,29.40
2023-08-12T20:55:16.973Z,29.40
2023-08-12T20:57:45.421Z,29.30
2023-08-12T21:00:15.214Z,29.20
2023-08-12T21:02:48.625Z,29.30
2023-08-12T21:05:16.680Z,29.20
2023-08-12T21:07:44.435Z,29.20
2023-08-12T21:10:13.202Z,29.30
2023-08-12T21:12:41.748Z,29.30
2023-08-12T21:15:09.880Z,29.30
2023-08-12T21:17:37.714Z,29.30
2023-08-12T21:20:06.101Z,29.20
2023-08-12T21:22:33.649Z,29.10
2023-08-12T21:25:01.398Z,29.20
2023-08-12T21:27:29.213Z,29.10
2023-08-12T21:29:57.031Z,29.10
2023-08-12T21:32:24.921Z,29.10
2023-08-12T21:34:52.642Z,29.00
2023-08-12T21:37:20.339Z,29.00
2023-08-12T21:39:48.132Z,29.00
2023-08-12T21:42:16.168Z,29.00
2023-08-12T21:44:44.038Z,29.00
2023-08-12T21:47:11.851Z,29.00
2023-08-12T21:49:39.666Z,28.90
2023-08-12T21:52:07.538Z,28.90
2023-08-12T21:54:35.279Z,28.90
2023-08-12T21:57:03.504Z,28.80
2023-08-12T21:59:31.213Z,28.90
2023-08-12T22:01:59.064Z,28.90
2023-08-12T22:04:26.784Z,28.90
2023-08-12T22:06:54.487Z,28.80
2023-08-12T22:09:22.262Z,28.70
2023-08-12T22:11:50.082Z,28.80
2023-08-12T22:14:18.043Z,28.80
2023-08-12T22:16:47.002Z,28.80
2023-08-12T22:19:14.942Z,28.80
2023-08-12T22:21:42.687Z,28.70
2023-08-12T22:24:10.541Z,28.70
2023-08-12T22:26:38.256Z,28.70
2023-08-12T22:29:06.004Z,28.70
2023-08-12T22:31:33.946Z,28.70
2023-08-12T22:34:03.041Z,28.70
2023-08-12T22:36:30.818Z,28.70
2023-08-12T22:38:58.616Z,28.80
2023-08-12T22:41:26.414Z,28.60
2023-08-12T22:43:54.154Z,28.70
2023-08-12T22:46:22.162Z,28.80
2023-08-12T22:48:49.925Z,28.70
2023-08-12T22:51:17.957Z,28.80
2023-08-12T22:53:45.793Z,28.70
2023-08-12T22:56:13.743Z,28.70
2023-08-12T22:58:41.912Z,28.70
2023-08-12T23:01:10.372Z,28.80
2023-08-12T23:03:38.358Z,28.70
2023-08-12T23:06:06.091Z,28.70
2023-08-12T23:08:33.937Z,28.70
2023-08-12T23:11:01.682Z,28.80
2023-08-12T23:13:29.448Z,28.80
2023-08-12T23:15:57.297Z,28.80
2023-08-12T23:18:25.016Z,28.80
2023-08-12T23:20:52.800Z,28.80
2023-08-12T23:23:20.559Z,28.80
2023-08-12T23:25:48.573Z,28.80
2023-08-12T23:28:16.430Z,28.80
2023-08-12T23:30:44.207Z,28.80
2023-08-12T23:33:12.015Z,28.70
2023-08-12T23:35:41.641Z,28.70
2023-08-12T23:38:09.670Z,28.60
2023-08-12T23:40:37.424Z,28.60
2023-08-12T23:43:05.387Z,28.60
2023-08-12T23:45:33.168Z,28.50
2023-08-12T23:48:03.595Z,28.60
2023-08-12T23:50:31.406Z,28.50
2023-08-12T23:52:59.184Z,28.40
2023-08-12T23:55:26.972Z,28.30
2023-08-12T23:57:54.690Z,28.30
